sensor_id;sensor_type;location;lat;lon;timestamp;temperature;humidity
44271;DHT22;29963;44.594;11.368;2023-11-19T00:02:21;8.20;99.90
44271;DHT22;29963;44.594;11.368;2023-11-19T00:04:47;8.30;99.90
44271;DHT22;29963;44.594;11.368;2023-11-19T00:07:13;8.40;99.90
44271;DHT22;29963;44.594;11.368;2023-11-19T00:09:40;8.50;99.90
44271;DHT22;29963;44.594;11.368;2023-11-19T00:12:06;8.60;99.90
44271;DHT22;29963;44.594;11.368;2023-11-19T00:14:33;8.60;99.90
44271;DHT22;29963;44.594;11.368;2023-11-19T00:17:00;8.70;99.90
44271;DHT22;29963;44.594;11.368;2023-11-19T00:19:26;8.70;99.90
44271;DHT22;29963;44.594;11.368;2023-11-19T00:21:52;8.70;99.90
44271;DHT22;29963;44.594;11.368;2023-11-19T00:24:18;8.60;99.90
44271;DHT22;29963;44.594;11.368;2023-11-19T00:26:44;8.60;99.90
44271;DHT22;29963;44.594;11.368;2023-11-19T00:29:10;8.40;99.90
44271;DHT22;29963;44.594;11.368;2023-11-19T00:31:36;8.30;99.90
44271;DHT22;29963;44.594;11.368;2023-11-19T00:34:02;8.10;99.90
44271;DHT22;29963;44.594;11.368;2023-11-19T00:36:28;8.10;99.90
44271;DHT22;29963;44.594;11.368;2023-11-19T00:38:57;8.10;99.90
44271;DHT22;29963;44.594;11.368;2023-11-19T00:41:23;8.10;99.90
44271;DHT22;29963;44.594;11.368;2023-11-19T00:43:49;8.10;99.90
44271;DHT22;29963;44.594;11.368;2023-11-19T00:46:15;8.00;99.90
44271;DHT22;29963;44.594;11.368;2023-11-19T00:48:40;8.10;99.90
44271;DHT22;29963;44.594;11.368;2023-11-19T00:51:06;8.20;99.90
44271;DHT22;29963;44.594;11.368;2023-11-19T00:53:32;8.30;99.90
44271;DHT22;29963;44.594;11.368;2023-11-19T00:55:59;8.40;99.90
44271;DHT22;29963;44.594;11.368;2023-11-19T00:58:25;8.40;99.90
44271;DHT22;29963;44.594;11.368;2023-11-19T01:00:51;8.30;99.90
44271;DHT22;29963;44.594;11.368;2023-11-19T01:03:17;8.10;99.90
44271;DHT22;29963;44.594;11.368;2023-11-19T01:05:42;7.90;99.90
44271;DHT22;29963;44.594;11.368;2023-11-19T01:08:09;7.80;99.90
44271;DHT22;29963;44.594;11.368;2023-11-19T01:10:37;7.70;99.90
44271;DHT22;29963;44.594;11.368;2023-11-19T01:13:03;7.50;99.90
44271;DHT22;29963;44.594;11.368;2023-11-19T01:15:31;7.30;99.90
44271;DHT22;29963;44.594;11.368;2023-11-19T01:17:57;7.30;99.90
44271;DHT22;29963;44.594;11.368;2023-11-19T01:20:23;7.10;99.90
44271;DHT22;29963;44.594;11.368;2023-11-19T01:22:50;7.20;99.90
44271;DHT22;29963;44.594;11.368;2023-11-19T01:25:16;7.10;99.90
44271;DHT22;29963;44.594;11.368;2023-11-19T01:27:41;7.20;99.90
44271;DHT22;29963;44.594;11.368;2023-11-19T01:30:08;7.20;99.90
44271;DHT22;29963;44.594;11.368;2023-11-19T01:32:39;7.30;99.90
44271;DHT22;29963;44.594;11.368;2023-11-19T01:35:05;7.30;99.90
44271;DHT22;29963;44.594;11.368;2023-11-19T01:37:31;7.30;99.90
44271;DHT22;29963;44.594;11.368;2023-11-19T01:39:57;7.10;99.90
44271;DHT22;29963;44.594;11.368;2023-11-19T01:42:23;7.10;99.90
44271;DHT22;29963;44.594;11.368;2023-11-19T01:44:59;7.10;99.90
44271;DHT22;29963;44.594;11.368;2023-11-19T01:47:28;7.10;99.90
44271;DHT22;29963;44.594;11.368;2023-11-19T01:49:56;7.10;99.90
44271;DHT22;29963;44.594;11.368;2023-11-19T01:52:22;7.20;99.90
44271;DHT22;29963;44.594;11.368;2023-11-19T01:54:49;7.20;99.90
44271;DHT22;29963;44.594;11.368;2023-11-19T01:57:15;7.30;99.90
44271;DHT22;29963;44.594;11.368;2023-11-19T01:59:42;7.20;99.90
44271;DHT22;29963;44.594;11.368;2023-11-19T02:02:08;7.20;99.90
44271;DHT22;29963;44.594;11.368;2023-11-19T02:04:34;7.30;99.90
44271;DHT22;29963;44.594;11.368;2023-11-19T02:07:00;7.30;99.90
44271;DHT22;29963;44.594;11.368;2023-11-19T02:09:26;7.20;99.90
44271;DHT22;29963;44.594;11.368;2023-11-19T02:11:53;7.20;99.90
44271;DHT22;29963;44.594;11.368;2023-11-19T02:14:23;7.20;99.90
44271;DHT22;29963;44.594;11.368;2023-11-19T02:16:51;7.10;99.90
44271;DHT22;29963;44.594;11.368;2023-11-19T02:19:19;7.10;99.90
44271;DHT22;29963;44.594;11.368;2023-11-19T02:21:45;7.20;99.90
44271;DHT22;29963;44.594;11.368;2023-11-19T02:24:12;7.30;99.90
44271;DHT22;29963;44.594;11.368;2023-11-19T02:27:02;7.30;99.90
44271;DHT22;29963;44.594;11.368;2023-11-19T02:29:31;7.30;99.90
44271;DHT22;29963;44.594;11.368;2023-11-19T02:31:57;7.30;99.90
44271;DHT22;29963;44.594;11.368;2023-11-19T02:34:23;7.30;99.90
44271;DHT22;29963;44.594;11.368;2023-11-19T02:36:48;7.30;99.90
44271;DHT22;29963;44.594;11.368;2023-11-19T02:39:15;7.30;99.90
44271;DHT22;29963;44.594;11.368;2023-11-19T02:41:47;7.40;99.90
44271;DHT22;29963;44.594;11.368;2023-11-19T02:44:13;7.40;99.90
44271;DHT22;29963;44.594;11.368;2023-11-19T02:46:39;7.30;99.90
44271;DHT22;29963;44.594;11.368;2023-11-19T02:49:07;7.40;99.90
44271;DHT22;29963;44.594;11.368;2023-11-19T02:51:33;7.30;99.90
44271;DHT22;29963;44.594;11.368;2023-11-19T02:54:00;7.30;99.90
44271;DHT22;29963;44.594;11.368;2023-11-19T02:56:26;7.30;99.90
44271;DHT22;29963;44.594;11.368;2023-11-19T02:58:52;7.20;99.90
44271;DHT22;29963;44.594;11.368;2023-11-19T03:01:22;7.20;99.90
44271;DHT22;29963;44.594;11.368;2023-11-19T03:04:00;7.20;99.90
44271;DHT22;29963;44.594;11.368;2023-11-19T03:06:27;7.20;99.90
44271;DHT22;29963;44.594;11.368;2023-11-19T03:08:55;7.20;99.90
44271;DHT22;29963;44.594;11.368;2023-11-19T03:11:21;7.20;99.90
44271;DHT22;29963;44.594;11.368;2023-11-19T03:13:46;7.10;99.90
44271;DHT22;29963;44.594;11.368;2023-11-19T03:16:12;7.20;99.90
44271;DHT22;29963;44.594;11.368;2023-11-19T03:18:39;7.20;99.90
44271;DHT22;29963;44.594;11.368;2023-11-19T03:21:08;7.30;99.90
44271;DHT22;29963;44.594;11.368;2023-11-19T03:23:34;7.30;99.90
44271;DHT22;29963;44.594;11.368;2023-11-19T03:26:00;7.20;99.90
44271;DHT22;29963;44.594;11.368;2023-11-19T03:28:29;7.30;99.90
44271;DHT22;29963;44.594;11.368;2023-11-19T03:30:56;7.30;99.90
44271;DHT22;29963;44.594;11.368;2023-11-19T03:33:22;7.20;99.90
44271;DHT22;29963;44.594;11.368;2023-11-19T03:35:47;7.10;99.90
44271;DHT22;29963;44.594;11.368;2023-11-19T03:38:13;7.20;99.90
44271;DHT22;29963;44.594;11.368;2023-11-19T03:40:40;7.20;99.90
44271;DHT22;29963;44.594;11.368;2023-11-19T03:43:06;7.20;99.90
44271;DHT22;29963;44.594;11.368;2023-11-19T03:45:31;7.20;99.90
44271;DHT22;29963;44.594;11.368;2023-11-19T03:47:57;7.20;99.90
44271;DHT22;29963;44.594;11.368;2023-11-19T03:50:23;7.20;99.90
44271;DHT22;29963;44.594;11.368;2023-11-19T03:52:49;7.20;99.90
44271;DHT22;29963;44.594;11.368;2023-11-19T03:55:15;7.20;99.90
44271;DHT22;29963;44.594;11.368;2023-11-19T03:57:41;7.20;99.90
44271;DHT22;29963;44.594;11.368;2023-11-19T04:00:07;7.20;99.90
44271;DHT22;29963;44.594;11.368;2023-11-19T04:02:36;7.20;99.90
44271;DHT22;29963;44.594;11.368;2023-11-19T04:05:02;7.10;99.90
44271;DHT22;29963;44.594;11.368;2023-11-19T04:07:30;7.10;99.90
44271;DHT22;29963;44.594;11.368;2023-11-19T04:09:57;7.00;99.90
44271;DHT22;29963;44.594;11.368;2023-11-19T04:12:23;7.00;99.90
44271;DHT22;29963;44.594;11.368;2023-11-19T04:14:49;6.90;99.90
44271;DHT22;29963;44.594;11.368;2023-11-19T04:17:14;6.90;99.90
44271;DHT22;29963;44.594;11.368;2023-11-19T04:19:40;6.90;99.90
44271;DHT22;29963;44.594;11.368;2023-11-19T04:22:09;6.80;99.90
44271;DHT22;29963;44.594;11.368;2023-11-19T04:24:36;6.80;99.90
44271;DHT22;29963;44.594;11.368;2023-11-19T04:27:02;6.80;99.90
44271;DHT22;29963;44.594;11.368;2023-11-19T04:29:30;6.90;99.90
44271;DHT22;29963;44.594;11.368;2023-11-19T04:31:56;6.80;99.90
44271;DHT22;29963;44.594;11.368;2023-11-19T04:34:22;6.80;99.90
44271;DHT22;29963;44.594;11.368;2023-11-19T04:36:47;6.80;99.90
44271;DHT22;29963;44.594;11.368;2023-11-19T04:39:14;6.80;99.90
44271;DHT22;29963;44.594;11.368;2023-11-19T04:41:51;6.80;99.90
44271;DHT22;29963;44.594;11.368;2023-11-19T04:44:20;6.90;99.90
44271;DHT22;29963;44.594;11.368;2023-11-19T04:46:46;6.80;99.90
44271;DHT22;29963;44.594;11.368;2023-11-19T04:49:12;6.90;99.90
44271;DHT22;29963;44.594;11.368;2023-11-19T04:51:42;6.90;99.90
44271;DHT22;29963;44.594;11.368;2023-11-19T04:54:09;6.80;99.90
44271;DHT22;29963;44.594;11.368;2023-11-19T04:56:36;6.70;99.90
44271;DHT22;29963;44.594;11.368;2023-11-19T04:59:05;6.70;99.90
44271;DHT22;29963;44.594;11.368;2023-11-19T05:01:32;6.70;99.90
44271;DHT22;29963;44.594;11.368;2023-11-19T05:03:58;6.80;99.90
44271;DHT22;29963;44.594;11.368;2023-11-19T05:06:28;6.70;99.90
44271;DHT22;29963;44.594;11.368;2023-11-19T05:08:58;6.70;99.90
44271;DHT22;29963;44.594;11.368;2023-11-19T05:11:24;6.70;99.90
44271;DHT22;29963;44.594;11.368;2023-11-19T05:13:49;6.60;99.90
44271;DHT22;29963;44.594;11.368;2023-11-19T05:16:16;6.60;99.90
44271;DHT22;29963;44.594;11.368;2023-11-19T05:18:43;6.60;99.90
44271;DHT22;29963;44.594;11.368;2023-11-19T05:21:09;6.60;99.90
44271;DHT22;29963;44.594;11.368;2023-11-19T05:23:35;6.70;99.90
44271;DHT22;29963;44.594;11.368;2023-11-19T05:26:04;6.70;99.90
44271;DHT22;29963;44.594;11.368;2023-11-19T05:28:30;6.70;99.90
44271;DHT22;29963;44.594;11.368;2023-11-19T05:30:55;6.70;99.90
44271;DHT22;29963;44.594;11.368;2023-11-19T05:33:21;6.70;99.90
44271;DHT22;29963;44.594;11.368;2023-11-19T05:35:47;6.70;99.90
44271;DHT22;29963;44.594;11.368;2023-11-19T05:38:13;6.60;99.90
44271;DHT22;29963;44.594;11.368;2023-11-19T05:40:41;6.60;99.90
44271;DHT22;29963;44.594;11.368;2023-11-19T05:43:06;6.60;99.90
44271;DHT22;29963;44.594;11.368;2023-11-19T05:45:32;6.50;99.90
44271;DHT22;29963;44.594;11.368;2023-11-19T05:47:58;6.50;99.90
44271;DHT22;29963;44.594;11.368;2023-11-19T05:50:24;6.50;99.90
44271;DHT22;29963;44.594;11.368;2023-11-19T05:52:50;6.50;99.90
44271;DHT22;29963;44.594;11.368;2023-11-19T05:55:15;6.50;99.90
44271;DHT22;29963;44.594;11.368;2023-11-19T05:57:41;6.50;99.90
44271;DHT22;29963;44.594;11.368;2023-11-19T06:00:08;6.50;99.90
44271;DHT22;29963;44.594;11.368;2023-11-19T06:02:36;6.50;99.90
44271;DHT22;29963;44.594;11.368;2023-11-19T06:05:04;6.50;99.90
44271;DHT22;29963;44.594;11.368;2023-11-19T06:07:31;6.40;99.90
44271;DHT22;29963;44.594;11.368;2023-11-19T06:09:57;6.40;99.90
44271;DHT22;29963;44.594;11.368;2023-11-19T06:12:23;6.40;99.90
44271;DHT22;29963;44.594;11.368;2023-11-19T06:14:48;6.40;99.90
44271;DHT22;29963;44.594;11.368;2023-11-19T06:17:14;6.50;99.90
44271;DHT22;29963;44.594;11.368;2023-11-19T06:19:40;6.50;99.90
44271;DHT22;29963;44.594;11.368;2023-11-19T06:22:05;6.50;99.90
44271;DHT22;29963;44.594;11.368;2023-11-19T06:24:34;6.60;99.90
44271;DHT22;29963;44.594;11.368;2023-11-19T06:27:00;6.60;99.90
44271;DHT22;29963;44.594;11.368;2023-11-19T06:29:26;6.70;99.90
44271;DHT22;29963;44.594;11.368;2023-11-19T06:31:52;6.70;99.90
44271;DHT22;29963;44.594;11.368;2023-11-19T06:34:18;6.70;99.90
44271;DHT22;29963;44.594;11.368;2023-11-19T06:36:44;6.70;99.90
44271;DHT22;29963;44.594;11.368;2023-11-19T06:39:10;6.70;99.90
44271;DHT22;29963;44.594;11.368;2023-11-19T06:41:38;6.20;99.90
44271;DHT22;29963;44.594;11.368;2023-11-19T06:44:05;6.70;99.90
44271;DHT22;29963;44.594;11.368;2023-11-19T06:46:31;6.60;99.90
44271;DHT22;29963;44.594;11.368;2023-11-19T06:48:57;6.70;99.90
44271;DHT22;29963;44.594;11.368;2023-11-19T06:51:23;6.70;99.90
44271;DHT22;29963;44.594;11.368;2023-11-19T06:53:50;6.70;99.90
44271;DHT22;29963;44.594;11.368;2023-11-19T06:56:23;6.80;99.90
44271;DHT22;29963;44.594;11.368;2023-11-19T06:58:49;6.80;99.90
44271;DHT22;29963;44.594;11.368;2023-11-19T07:01:16;6.80;99.90
44271;DHT22;29963;44.594;11.368;2023-11-19T07:03:42;6.90;99.90
44271;DHT22;29963;44.594;11.368;2023-11-19T07:06:07;6.90;99.90
44271;DHT22;29963;44.594;11.368;2023-11-19T07:08:34;6.90;99.90
44271;DHT22;29963;44.594;11.368;2023-11-19T07:11:00;6.90;99.90
44271;DHT22;29963;44.594;11.368;2023-11-19T07:13:25;6.80;99.90
44271;DHT22;29963;44.594;11.368;2023-11-19T07:15:55;6.70;99.90
44271;DHT22;29963;44.594;11.368;2023-11-19T07:18:21;6.70;99.90
44271;DHT22;29963;44.594;11.368;2023-11-19T07:20:48;6.70;99.90
44271;DHT22;29963;44.594;11.368;2023-11-19T07:23:14;6.80;99.90
44271;DHT22;29963;44.594;11.368;2023-11-19T07:25:43;6.80;99.90
44271;DHT22;29963;44.594;11.368;2023-11-19T07:28:10;6.80;99.90
44271;DHT22;29963;44.594;11.368;2023-11-19T07:30:36;6.80;99.90
44271;DHT22;29963;44.594;11.368;2023-11-19T07:33:03;6.90;99.90
44271;DHT22;29963;44.594;11.368;2023-11-19T07:35:29;6.90;99.90
44271;DHT22;29963;44.594;11.368;2023-11-19T07:37:58;7.00;99.90
44271;DHT22;29963;44.594;11.368;2023-11-19T07:40:24;7.10;99.90
44271;DHT22;29963;44.594;11.368;2023-11-19T07:42:50;7.20;99.90
44271;DHT22;29963;44.594;11.368;2023-11-19T07:45:16;7.20;99.90
44271;DHT22;29963;44.594;11.368;2023-11-19T07:47:43;7.30;99.90
44271;DHT22;29963;44.594;11.368;2023-11-19T07:50:10;7.30;99.90
44271;DHT22;29963;44.594;11.368;2023-11-19T07:52:37;7.40;99.90
44271;DHT22;29963;44.594;11.368;2023-11-19T07:55:03;7.50;99.90
44271;DHT22;29963;44.594;11.368;2023-11-19T07:57:29;7.60;99.90
44271;DHT22;29963;44.594;11.368;2023-11-19T07:59:59;7.70;99.90
44271;DHT22;29963;44.594;11.368;2023-11-19T08:02:26;7.80;99.90
44271;DHT22;29963;44.594;11.368;2023-11-19T08:04:52;7.80;99.90
44271;DHT22;29963;44.594;11.368;2023-11-19T08:07:20;7.90;99.90
44271;DHT22;29963;44.594;11.368;2023-11-19T08:09:46;8.00;99.90
44271;DHT22;29963;44.594;11.368;2023-11-19T08:12:12;8.10;99.90
44271;DHT22;29963;44.594;11.368;2023-11-19T08:14:40;8.20;99.90
44271;DHT22;29963;44.594;11.368;2023-11-19T08:17:05;8.30;99.90
44271;DHT22;29963;44.594;11.368;2023-11-19T08:19:32;8.40;99.90
44271;DHT22;29963;44.594;11.368;2023-11-19T08:21:57;8.50;99.90
44271;DHT22;29963;44.594;11.368;2023-11-19T08:24:23;8.60;99.90
44271;DHT22;29963;44.594;11.368;2023-11-19T08:26:49;8.60;99.90
44271;DHT22;29963;44.594;11.368;2023-11-19T08:29:15;8.70;99.90
44271;DHT22;29963;44.594;11.368;2023-11-19T08:31:40;8.80;99.90
44271;DHT22;29963;44.594;11.368;2023-11-19T08:34:06;8.90;99.90
44271;DHT22;29963;44.594;11.368;2023-11-19T08:36:34;9.00;99.90
44271;DHT22;29963;44.594;11.368;2023-11-19T08:39:00;9.20;99.90
44271;DHT22;29963;44.594;11.368;2023-11-19T08:41:26;9.30;99.90
44271;DHT22;29963;44.594;11.368;2023-11-19T08:43:52;9.40;99.90
44271;DHT22;29963;44.594;11.368;2023-11-19T08:46:18;9.40;99.90
44271;DHT22;29963;44.594;11.368;2023-11-19T08:48:44;9.50;99.90
44271;DHT22;29963;44.594;11.368;2023-11-19T08:51:10;9.60;99.90
44271;DHT22;29963;44.594;11.368;2023-11-19T08:53:35;9.70;99.90
44271;DHT22;29963;44.594;11.368;2023-11-19T08:56:01;9.70;99.90
44271;DHT22;29963;44.594;11.368;2023-11-19T08:58:28;9.70;99.90
44271;DHT22;29963;44.594;11.368;2023-11-19T09:00:54;9.80;99.90
44271;DHT22;29963;44.594;11.368;2023-11-19T09:03:20;9.90;99.90
44271;DHT22;29963;44.594;11.368;2023-11-19T09:05:46;9.90;99.90
44271;DHT22;29963;44.594;11.368;2023-11-19T09:08:12;9.90;99.90
44271;DHT22;29963;44.594;11.368;2023-11-19T09:10:38;9.90;99.90
44271;DHT22;29963;44.594;11.368;2023-11-19T09:13:03;9.90;99.90
44271;DHT22;29963;44.594;11.368;2023-11-19T09:15:29;10.00;99.90
44271;DHT22;29963;44.594;11.368;2023-11-19T09:17:55;10.00;99.90
44271;DHT22;29963;44.594;11.368;2023-11-19T09:20:21;10.00;99.90
44271;DHT22;29963;44.594;11.368;2023-11-19T09:22:47;10.10;99.90
44271;DHT22;29963;44.594;11.368;2023-11-19T09:25:13;10.10;99.90
44271;DHT22;29963;44.594;11.368;2023-11-19T09:27:43;10.10;99.90
44271;DHT22;29963;44.594;11.368;2023-11-19T09:30:09;10.20;99.90
44271;DHT22;29963;44.594;11.368;2023-11-19T09:32:35;10.20;99.90
44271;DHT22;29963;44.594;11.368;2023-11-19T09:35:01;10.30;99.90
44271;DHT22;29963;44.594;11.368;2023-11-19T09:37:28;10.40;99.90
44271;DHT22;29963;44.594;11.368;2023-11-19T09:39:53;10.40;99.90
44271;DHT22;29963;44.594;11.368;2023-11-19T09:42:19;10.40;99.90
44271;DHT22;29963;44.594;11.368;2023-11-19T09:44:47;10.40;99.90
44271;DHT22;29963;44.594;11.368;2023-11-19T09:47:14;10.50;99.90
44271;DHT22;29963;44.594;11.368;2023-11-19T09:49:41;10.60;99.90
44271;DHT22;29963;44.594;11.368;2023-11-19T09:52:07;10.70;99.90
44271;DHT22;29963;44.594;11.368;2023-11-19T09:54:33;10.80;99.90
44271;DHT22;29963;44.594;11.368;2023-11-19T09:56:59;10.90;99.90
44271;DHT22;29963;44.594;11.368;2023-11-19T09:59:30;11.00;99.90
44271;DHT22;29963;44.594;11.368;2023-11-19T10:01:56;11.00;99.90
44271;DHT22;29963;44.594;11.368;2023-11-19T10:04:23;11.10;99.90
44271;DHT22;29963;44.594;11.368;2023-11-19T10:06:50;11.10;99.90
44271;DHT22;29963;44.594;11.368;2023-11-19T10:09:16;11.20;99.90
44271;DHT22;29963;44.594;11.368;2023-11-19T10:11:42;11.20;99.90
44271;DHT22;29963;44.594;11.368;2023-11-19T10:14:09;11.30;99.90
44271;DHT22;29963;44.594;11.368;2023-11-19T10:16:35;11.40;99.90
44271;DHT22;29963;44.594;11.368;2023-11-19T10:19:01;11.40;99.90
44271;DHT22;29963;44.594;11.368;2023-11-19T10:21:26;11.50;99.90
44271;DHT22;29963;44.594;11.368;2023-11-19T10:23:55;11.60;99.90
44271;DHT22;29963;44.594;11.368;2023-11-19T10:26:22;11.60;99.90
44271;DHT22;29963;44.594;11.368;2023-11-19T10:28:48;11.60;99.90
44271;DHT22;29963;44.594;11.368;2023-11-19T10:31:15;11.70;99.90
44271;DHT22;29963;44.594;11.368;2023-11-19T10:33:41;11.70;99.90
44271;DHT22;29963;44.594;11.368;2023-11-19T10:36:08;11.70;99.90
44271;DHT22;29963;44.594;11.368;2023-11-19T10:38:33;11.70;99.90
44271;DHT22;29963;44.594;11.368;2023-11-19T10:41:02;11.70;99.90
44271;DHT22;29963;44.594;11.368;2023-11-19T10:43:28;11.80;99.90
44271;DHT22;29963;44.594;11.368;2023-11-19T10:45:54;11.80;99.90
44271;DHT22;29963;44.594;11.368;2023-11-19T10:48:19;11.90;99.90
44271;DHT22;29963;44.594;11.368;2023-11-19T10:50:53;11.90;99.90
44271;DHT22;29963;44.594;11.368;2023-11-19T10:53:20;11.90;99.90
44271;DHT22;29963;44.594;11.368;2023-11-19T10:55:47;11.90;99.90
44271;DHT22;29963;44.594;11.368;2023-11-19T10:58:16;12.10;99.90
44271;DHT22;29963;44.594;11.368;2023-11-19T11:00:58;12.20;99.90
44271;DHT22;29963;44.594;11.368;2023-11-19T11:03:36;12.40;99.90
44271;DHT22;29963;44.594;11.368;2023-11-19T11:06:05;12.30;99.90
44271;DHT22;29963;44.594;11.368;2023-11-19T11:08:31;12.40;99.90
44271;DHT22;29963;44.594;11.368;2023-11-19T11:10:57;12.40;99.90
44271;DHT22;29963;44.594;11.368;2023-11-19T11:13:24;12.50;99.90
44271;DHT22;29963;44.594;11.368;2023-11-19T11:15:51;12.50;99.90
44271;DHT22;29963;44.594;11.368;2023-11-19T11:18:17;12.60;99.90
44271;DHT22;29963;44.594;11.368;2023-11-19T11:20:47;12.70;99.90
44271;DHT22;29963;44.594;11.368;2023-11-19T11:35:36;12.80;99.90
44271;DHT22;29963;44.594;11.368;2023-11-19T11:38:08;12.90;99.90
44271;DHT22;29963;44.594;11.368;2023-11-19T11:40:34;12.90;99.90
44271;DHT22;29963;44.594;11.368;2023-11-19T11:43:02;13.00;99.90
44271;DHT22;29963;44.594;11.368;2023-11-19T11:45:40;13.00;99.90
44271;DHT22;29963;44.594;11.368;2023-11-19T11:48:12;13.10;99.90
44271;DHT22;29963;44.594;11.368;2023-11-19T11:50:53;13.10;99.90
44271;DHT22;29963;44.594;11.368;2023-11-19T11:53:20;13.10;99.90
44271;DHT22;29963;44.594;11.368;2023-11-19T11:58:17;13.20;99.90
44271;DHT22;29963;44.594;11.368;2023-11-19T12:00:43;13.30;99.90
44271;DHT22;29963;44.594;11.368;2023-11-19T12:03:11;13.30;99.90
44271;DHT22;29963;44.594;11.368;2023-11-19T12:05:46;13.30;99.90
44271;DHT22;29963;44.594;11.368;2023-11-19T12:08:19;13.40;99.90
44271;DHT22;29963;44.594;11.368;2023-11-19T12:10:50;13.50;99.90
44271;DHT22;29963;44.594;11.368;2023-11-19T12:13:18;13.50;99.90
44271;DHT22;29963;44.594;11.368;2023-11-19T12:18:31;13.60;99.90
44271;DHT22;29963;44.594;11.368;2023-11-19T12:20:58;13.90;99.90
44271;DHT22;29963;44.594;11.368;2023-11-19T12:23:31;13.70;99.90
44271;DHT22;29963;44.594;11.368;2023-11-19T12:25:57;13.80;99.90
44271;DHT22;29963;44.594;11.368;2023-11-19T12:28:23;13.90;99.90
44271;DHT22;29963;44.594;11.368;2023-11-19T12:30:52;13.90;99.90
44271;DHT22;29963;44.594;11.368;2023-11-19T12:33:19;14.00;99.90
44271;DHT22;29963;44.594;11.368;2023-11-19T12:35:46;14.10;99.90
44271;DHT22;29963;44.594;11.368;2023-11-19T12:38:22;14.20;99.90
44271;DHT22;29963;44.594;11.368;2023-11-19T12:41:04;14.20;99.90
44271;DHT22;29963;44.594;11.368;2023-11-19T12:43:30;14.30;99.90
44271;DHT22;29963;44.594;11.368;2023-11-19T12:45:56;14.30;99.90
44271;DHT22;29963;44.594;11.368;2023-11-19T12:48:22;14.40;99.90
44271;DHT22;29963;44.594;11.368;2023-11-19T12:50:52;14.50;99.90
44271;DHT22;29963;44.594;11.368;2023-11-19T12:53:22;14.60;99.90
44271;DHT22;29963;44.594;11.368;2023-11-19T12:55:48;14.70;99.90
44271;DHT22;29963;44.594;11.368;2023-11-19T12:58:34;14.80;99.90
44271;DHT22;29963;44.594;11.368;2023-11-19T13:01:09;14.90;99.90
44271;DHT22;29963;44.594;11.368;2023-11-19T13:03:38;15.00;99.90
44271;DHT22;29963;44.594;11.368;2023-11-19T13:06:04;15.10;99.90
44271;DHT22;29963;44.594;11.368;2023-11-19T13:08:44;15.30;99.90
44271;DHT22;29963;44.594;11.368;2023-11-19T13:11:12;15.40;99.90
44271;DHT22;29963;44.594;11.368;2023-11-19T13:13:57;15.50;99.90
44271;DHT22;29963;44.594;11.368;2023-11-19T13:16:27;15.70;99.90
44271;DHT22;29963;44.594;11.368;2023-11-19T13:18:53;15.80;99.90
44271;DHT22;29963;44.594;11.368;2023-11-19T13:21:19;16.00;99.90
44271;DHT22;29963;44.594;11.368;2023-11-19T13:23:45;16.30;99.90
44271;DHT22;29963;44.594;11.368;2023-11-19T13:26:11;16.40;99.90
44271;DHT22;29963;44.594;11.368;2023-11-19T13:28:38;16.60;99.90
44271;DHT22;29963;44.594;11.368;2023-11-19T13:31:04;16.80;99.90
44271;DHT22;29963;44.594;11.368;2023-11-19T13:33:29;17.00;99.90
44271;DHT22;29963;44.594;11.368;2023-11-19T13:35:56;17.10;99.90
44271;DHT22;29963;44.594;11.368;2023-11-19T13:38:22;17.40;99.90
44271;DHT22;29963;44.594;11.368;2023-11-19T13:40:49;17.50;99.90
44271;DHT22;29963;44.594;11.368;2023-11-19T13:43:15;17.90;99.90
44271;DHT22;29963;44.594;11.368;2023-11-19T13:45:40;19.10;99.90
44271;DHT22;29963;44.594;11.368;2023-11-19T13:48:06;20.90;97.50
44271;DHT22;29963;44.594;11.368;2023-11-19T13:50:32;22.70;95.20
44271;DHT22;29963;44.594;11.368;2023-11-19T13:52:59;24.10;91.80
44271;DHT22;29963;44.594;11.368;2023-11-19T13:55:25;25.00;86.90
44271;DHT22;29963;44.594;11.368;2023-11-19T13:57:51;25.80;83.40
44271;DHT22;29963;44.594;11.368;2023-11-19T14:00:17;26.60;79.50
44271;DHT22;29963;44.594;11.368;2023-11-19T14:02:45;27.20;75.40
44271;DHT22;29963;44.594;11.368;2023-11-19T14:05:11;27.60;72.50
44271;DHT22;29963;44.594;11.368;2023-11-19T14:07:37;27.80;70.10
44271;DHT22;29963;44.594;11.368;2023-11-19T14:10:03;27.80;68.60
44271;DHT22;29963;44.594;11.368;2023-11-19T14:12:31;27.90;66.70
44271;DHT22;29963;44.594;11.368;2023-11-19T14:14:57;28.00;65.00
44271;DHT22;29963;44.594;11.368;2023-11-19T14:17:23;28.10;64.90
44271;DHT22;29963;44.594;11.368;2023-11-19T14:19:50;28.00;63.30
44271;DHT22;29963;44.594;11.368;2023-11-19T14:22:16;28.00;62.30
44271;DHT22;29963;44.594;11.368;2023-11-19T14:24:42;27.70;62.80
44271;DHT22;29963;44.594;11.368;2023-11-19T14:27:09;27.20;62.20
44271;DHT22;29963;44.594;11.368;2023-11-19T14:29:35;26.70;61.70
44271;DHT22;29963;44.594;11.368;2023-11-19T14:32:01;26.30;62.60
44271;DHT22;29963;44.594;11.368;2023-11-19T14:34:31;26.00;62.80
44271;DHT22;29963;44.594;11.368;2023-11-19T14:36:58;25.70;64.70
44271;DHT22;29963;44.594;11.368;2023-11-19T14:39:24;25.50;64.40
44271;DHT22;29963;44.594;11.368;2023-11-19T14:41:50;25.20;65.50
44271;DHT22;29963;44.594;11.368;2023-11-19T14:44:16;25.10;67.00
44271;DHT22;29963;44.594;11.368;2023-11-19T14:46:42;25.00;67.80
44271;DHT22;29963;44.594;11.368;2023-11-19T14:49:08;24.80;68.80
44271;DHT22;29963;44.594;11.368;2023-11-19T14:51:37;24.60;70.10
44271;DHT22;29963;44.594;11.368;2023-11-19T14:54:04;24.30;70.80
44271;DHT22;29963;44.594;11.368;2023-11-19T14:56:30;24.10;72.00
44271;DHT22;29963;44.594;11.368;2023-11-19T14:58:55;23.80;72.70
44271;DHT22;29963;44.594;11.368;2023-11-19T15:01:21;23.40;73.70
44271;DHT22;29963;44.594;11.368;2023-11-19T15:03:47;23.10;75.00
44271;DHT22;29963;44.594;11.368;2023-11-19T15:06:12;22.90;76.50
44271;DHT22;29963;44.594;11.368;2023-11-19T15:08:38;22.60;77.40
44271;DHT22;29963;44.594;11.368;2023-11-19T15:11:04;22.30;78.70
44271;DHT22;29963;44.594;11.368;2023-11-19T15:13:32;22.10;79.80
44271;DHT22;29963;44.594;11.368;2023-11-19T15:15:58;21.90;81.10
44271;DHT22;29963;44.594;11.368;2023-11-19T15:18:24;21.80;83.00
44271;DHT22;29963;44.594;11.368;2023-11-19T15:20:50;21.60;84.10
44271;DHT22;29963;44.594;11.368;2023-11-19T15:23:15;21.40;85.30
44271;DHT22;29963;44.594;11.368;2023-11-19T15:25:42;21.20;86.00
44271;DHT22;29963;44.594;11.368;2023-11-19T15:28:07;20.70;87.50
44271;DHT22;29963;44.594;11.368;2023-11-19T15:30:33;20.30;89.80
44271;DHT22;29963;44.594;11.368;2023-11-19T15:32:59;19.80;91.00
44271;DHT22;29963;44.594;11.368;2023-11-19T15:35:25;19.30;92.20
44271;DHT22;29963;44.594;11.368;2023-11-19T15:37:51;18.90;93.60
44271;DHT22;29963;44.594;11.368;2023-11-19T15:40:17;18.40;95.00
44271;DHT22;29963;44.594;11.368;2023-11-19T15:42:43;18.10;96.70